createdAt,value
2017-11-04T00:00:58.208Z,101148.75
2017-11-04T00:03:26.532Z,101150.12
2017-11-04T00:05:54.069Z,101147.10
2017-11-04T00:08:22.391Z,101149.14
2017-11-04T00:10:49.920Z,101150.82
2017-11-04T00:13:17.455Z,101148.66
2017-11-04T00:15:44.989Z,101148.43
2017-11-04T00:18:13.346Z,101153.71
2017-11-04T00:20:40.909Z,101147.45
2017-11-04T00:23:09.144Z,101153.02
2017-11-04T00:25:37.466Z,101146.95
2017-11-04T00:28:05.000Z,101143.36
2017-11-04T00:30:32.534Z,101139.67
2017-11-04T00:33:00.070Z,101130.56
2017-11-04T00:35:27.608Z,101136.94
2017-11-04T00:37:55.143Z,101132.13
2017-11-04T00:40:22.681Z,101132.30
2017-11-04T00:42:50.264Z,101127.34
2017-11-04T00:45:17.797Z,101127.12
2017-11-04T00:47:45.333Z,101130.47
2017-11-04T00:50:12.870Z,101142.89
2017-11-04T00:52:40.627Z,101142.55
2017-11-04T00:55:08.159Z,101131.19
2017-11-04T00:57:35.696Z,101126.22
2017-11-04T01:00:03.233Z,101124.80
2017-11-04T01:02:31.667Z,101126.22
2017-11-04T01:04:59.248Z,101117.70
2017-11-04T01:07:27.584Z,101122.09
2017-11-04T01:09:55.556Z,101116.62
2017-11-04T01:12:23.100Z,101117.13
2017-11-04T01:14:50.632Z,101112.22
2017-11-04T01:17:18.181Z,101111.97
2017-11-04T01:19:45.713Z,101114.55
2017-11-04T01:22:13.249Z,101109.55
2017-11-04T01:24:41.528Z,101100.26
2017-11-04T01:27:09.051Z,101104.37
2017-11-04T01:29:36.579Z,101102.52
2017-11-04T01:32:04.113Z,101098.71
2017-11-04T01:34:31.694Z,101095.70
2017-11-04T01:36:59.246Z,101095.33
2017-11-04T01:39:26.794Z,101096.61
2017-11-04T01:41:54.324Z,101097.38
2017-11-04T01:44:21.861Z,101086.20
2017-11-04T01:46:49.393Z,101086.65
2017-11-04T01:49:17.846Z,101087.23
2017-11-04T01:51:45.381Z,101083.05
2017-11-04T01:54:13.295Z,101083.50
2017-11-04T01:56:40.819Z,101083.98
2017-11-04T01:59:08.353Z,101079.65
2017-11-04T02:01:35.884Z,101083.32
2017-11-04T02:04:03.419Z,101073.80
2017-11-04T02:06:30.981Z,101068.99
2017-11-04T02:08:58.520Z,101068.56
2017-11-04T02:11:26.058Z,101068.82
2017-11-04T02:13:53.588Z,101072.28
2017-11-04T02:16:21.933Z,101058.51
2017-11-04T02:18:49.467Z,101062.87
2017-11-04T02:21:17.007Z,101061.40
2017-11-04T02:23:44.537Z,101062.02
2017-11-04T02:26:12.070Z,101062.48
2017-11-04T02:28:39.649Z,101056.49
2017-11-04T02:31:08.027Z,101052.16
2017-11-04T02:33:35.560Z,101054.74
2017-11-04T02:36:04.004Z,101058.28
2017-11-04T02:38:31.539Z,101053.59
2017-11-04T02:40:59.077Z,101053.59
2017-11-04T02:43:26.612Z,101054.62
2017-11-04T02:45:55.046Z,101062.48
2017-11-04T02:48:22.577Z,101053.42
2017-11-04T02:50:50.108Z,101049.05
2017-11-04T02:53:17.648Z,101050.31
2017-11-04T02:55:46.216Z,101048.36
2017-11-04T02:58:13.748Z,101052.38
2017-11-04T03:00:41.292Z,101044.28
2017-11-04T03:03:08.831Z,101047.07
2017-11-04T03:05:36.925Z,101044.50
2017-11-04T03:08:04.466Z,101045.23
2017-11-04T03:10:32.009Z,101048.28
2017-11-04T03:12:59.545Z,101040.47
2017-11-04T03:15:27.083Z,101040.57
2017-11-04T03:17:56.272Z,101039.05
2017-11-04T03:20:23.805Z,101034.72
2017-11-04T03:22:51.343Z,101038.45
2017-11-04T03:25:18.875Z,101033.95
2017-11-04T03:27:46.461Z,101041.84
2017-11-04T03:30:14.000Z,101034.92
2017-11-04T03:32:41.552Z,101031.36
2017-11-04T03:35:09.128Z,101035.09
2017-11-04T03:37:36.665Z,101038.28
2017-11-04T03:40:04.205Z,101033.47
2017-11-04T03:42:31.741Z,101028.95
2017-11-04T03:44:59.276Z,101029.48
2017-11-04T03:47:27.320Z,101026.18
2017-11-04T03:49:54.851Z,101018.44
2017-11-04T03:52:22.385Z,101026.67
2017-11-04T03:54:49.924Z,101027.06
2017-11-04T03:57:17.457Z,101022.81
2017-11-04T03:59:44.988Z,101013.80
2017-11-04T04:02:12.530Z,101014.67
2017-11-04T04:04:40.081Z,101014.47
2017-11-04T04:07:07.610Z,101014.39
2017-11-04T04:09:35.136Z,101014.39
2017-11-04T04:12:02.677Z,101015.48
2017-11-04T04:14:30.221Z,101008.86
2017-11-04T04:16:57.758Z,101001.42
2017-11-04T04:19:25.291Z,101001.70
2017-11-04T04:21:52.829Z,100997.44
2017-11-04T04:24:20.361Z,101000.73
2017-11-04T04:26:47.896Z,100996.67
2017-11-04T04:29:15.444Z,101000.88
2017-11-04T04:31:42.985Z,101002.92
2017-11-04T04:34:10.517Z,100998.94
2017-11-04T04:36:38.060Z,100996.48
2017-11-04T04:39:05.599Z,100998.94
2017-11-04T04:41:33.131Z,100987.95
2017-11-04T04:44:00.672Z,100989.73
2017-11-04T04:46:28.201Z,100996.92
2017-11-04T04:48:55.836Z,100985.17
2017-11-04T04:51:24.563Z,100993.26
2017-11-04T04:53:52.095Z,100985.94
2017-11-04T04:56:19.628Z,100982.84
2017-11-04T04:58:47.169Z,100984.31
2017-11-04T05:01:14.705Z,100982.98
2017-11-04T05:03:42.246Z,100982.75
2017-11-04T05:06:11.714Z,100983.09
2017-11-04T05:08:39.249Z,100976.09
2017-11-04T05:11:06.784Z,100972.55
2017-11-04T05:13:34.318Z,100970.43
2017-11-04T05:16:01.859Z,100968.42
2017-11-04T05:18:29.398Z,100963.05
2017-11-04T05:20:56.935Z,100966.47
2017-11-04T05:23:24.481Z,100962.22
2017-11-04T05:25:52.020Z,100965.67
2017-11-04T05:28:19.559Z,100963.14
2017-11-04T05:30:47.569Z,100968.61
2017-11-04T05:33:15.132Z,100968.14
2017-11-04T05:35:42.669Z,100961.72
2017-11-04T05:38:10.203Z,100967.59
2017-11-04T05:40:37.742Z,100965.97
2017-11-04T05:43:05.281Z,100968.58
2017-11-04T05:45:32.843Z,100966.36
2017-11-04T05:48:00.376Z,100964.78
2017-11-04T05:50:28.344Z,100959.16
2017-11-04T05:52:55.880Z,100967.84
2017-11-04T05:55:23.421Z,100962.07
2017-11-04T05:57:50.949Z,100961.95
2017-11-04T06:00:19.067Z,100969.69
2017-11-04T06:02:46.657Z,100962.64
2017-11-04T06:05:14.194Z,100972.97
2017-11-04T06:07:41.729Z,100968.22
2017-11-04T06:10:09.266Z,100971.33
2017-11-04T06:12:36.800Z,100973.05
2017-11-04T06:15:04.336Z,100969.19
2017-11-04T06:17:31.875Z,100973.81
2017-11-04T06:19:59.413Z,100974.31
2017-11-04T06:22:26.966Z,100973.44
2017-11-04T06:24:54.506Z,100976.86
2017-11-04T06:27:22.128Z,100973.00
2017-11-04T06:29:49.660Z,100972.25
2017-11-04T06:32:17.199Z,100973.20
2017-11-04T06:34:44.728Z,100975.28
2017-11-04T06:37:12.270Z,100973.00
2017-11-04T06:39:39.815Z,100972.83
2017-11-04T06:42:07.349Z,100979.89
2017-11-04T06:44:34.886Z,100978.16
2017-11-04T06:47:02.423Z,100966.57
2017-11-04T06:49:29.952Z,100963.59
2017-11-04T06:51:58.075Z,100965.09
2017-11-04T06:54:27.247Z,100965.09
2017-11-04T06:56:54.788Z,100969.28
2017-11-04T06:59:22.322Z,100963.83
2017-11-04T07:01:49.871Z,100963.09
2017-11-04T07:04:17.448Z,100968.63
2017-11-04T07:06:44.990Z,100969.25
2017-11-04T07:09:12.524Z,100964.41
2017-11-04T07:11:40.110Z,100969.61
2017-11-04T07:14:07.651Z,100964.85
2017-11-04T07:16:35.198Z,100962.16
2017-11-04T07:19:02.737Z,100963.79
2017-11-04T07:21:30.296Z,100957.70
2017-11-04T07:23:58.421Z,100960.63
2017-11-04T07:26:25.960Z,100956.31
2017-11-04T07:28:54.049Z,100950.26
2017-11-04T07:31:21.628Z,100948.08
2017-11-04T07:33:50.265Z,100943.14
2017-11-04T07:36:18.119Z,100948.37
2017-11-04T07:38:45.795Z,100941.17
2017-11-04T07:41:14.139Z,100950.55
2017-11-04T07:43:43.326Z,100940.98
2017-11-04T07:46:11.257Z,100940.61
2017-11-04T07:48:39.676Z,100941.02
2017-11-04T07:51:07.722Z,100937.20
2017-11-04T07:53:35.451Z,100933.19
2017-11-04T07:56:02.997Z,100933.21
2017-11-04T07:58:31.257Z,100931.02
2017-11-04T08:00:59.377Z,100934.16
2017-11-04T08:03:28.200Z,100933.02
2017-11-04T08:05:55.744Z,100926.69
2017-11-04T08:08:23.279Z,100931.24
2017-11-04T08:10:50.821Z,100922.39
2017-11-04T08:13:18.398Z,100916.47
2017-11-04T08:15:46.261Z,100916.17
2017-11-04T08:18:13.795Z,100918.20
2017-11-04T08:20:41.332Z,100922.06
2017-11-04T08:23:08.870Z,100914.71
2017-11-04T08:25:36.410Z,100917.34
2017-11-04T08:28:03.949Z,100908.36
2017-11-04T08:30:31.487Z,100908.12
2017-11-04T08:32:59.044Z,100910.77
2017-11-04T08:35:27.253Z,100910.89
2017-11-04T08:37:54.798Z,100898.36
2017-11-04T08:40:22.334Z,100904.70
2017-11-04T08:42:49.870Z,100909.19
2017-11-04T08:45:17.453Z,100906.97
2017-11-04T08:47:44.988Z,100908.88
2017-11-04T08:50:12.646Z,100901.63
2017-11-04T08:52:40.465Z,100898.36
2017-11-04T08:55:08.065Z,100891.46
2017-11-04T08:57:36.188Z,100896.73
2017-11-04T09:00:03.733Z,100887.05
2017-11-04T09:02:31.366Z,100895.98
2017-11-04T09:04:58.906Z,100884.13
2017-11-04T09:07:26.445Z,100891.27
2017-11-04T09:09:53.983Z,100892.27
2017-11-04T09:12:21.690Z,100885.48
2017-11-04T09:14:49.293Z,100881.91
2017-11-04T09:17:16.840Z,100882.05
2017-11-04T09:19:44.398Z,100879.48
2017-11-04T09:22:12.301Z,100882.02
2017-11-04T09:24:39.852Z,100879.06
2017-11-04T09:27:07.455Z,100881.48
2017-11-04T09:29:35.378Z,100877.06
2017-11-04T09:32:03.470Z,100879.80
2017-11-04T09:34:31.011Z,100870.91
2017-11-04T09:36:58.604Z,100871.10
2017-11-04T09:39:26.138Z,100869.34
2017-11-04T09:41:53.677Z,100872.07
2017-11-04T09:44:21.213Z,100860.63
2017-11-04T09:46:48.795Z,100865.13
2017-11-04T09:49:16.329Z,100860.78
2017-11-04T09:51:43.872Z,100859.05
2017-11-04T09:54:11.413Z,100859.12
2017-11-04T09:56:38.969Z,100849.61
2017-11-04T09:59:07.100Z,100845.39
2017-11-04T10:01:36.301Z,100849.73
2017-11-04T10:04:05.741Z,100839.14
2017-11-04T10:06:33.379Z,100834.30
2017-11-04T10:09:00.926Z,100841.02
2017-11-04T10:11:28.464Z,100833.91
2017-11-04T10:13:56.034Z,100830.36
2017-11-04T10:16:23.568Z,100828.31
2017-11-04T10:18:51.110Z,100828.73
2017-11-04T10:21:18.653Z,100822.83
2017-11-04T10:23:46.996Z,100817.41
2017-11-04T10:26:15.201Z,100817.27
2017-11-04T10:28:42.751Z,100819.95
2017-11-04T10:31:10.288Z,100819.80
2017-11-04T10:33:37.835Z,100819.63
2017-11-04T10:36:05.386Z,100815.64
2017-11-04T10:38:32.928Z,100811.19
2017-11-04T10:41:00.516Z,100804.73
2017-11-04T10:43:28.069Z,100798.27
2017-11-04T10:45:55.617Z,100799.36
2017-11-04T10:48:23.160Z,100787.64
2017-11-04T10:50:50.719Z,100785.02
2017-11-04T10:53:18.332Z,100779.84
2017-11-04T10:55:45.873Z,100781.22
2017-11-04T10:58:13.731Z,100773.70
2017-11-04T11:00:41.271Z,100772.80
2017-11-04T11:03:08.818Z,100775.06
2017-11-04T11:05:36.365Z,100763.86
2017-11-04T11:08:03.928Z,100767.20
2017-11-04T11:10:31.474Z,100768.90
2017-11-04T11:12:59.064Z,100767.62
2017-11-04T11:15:26.616Z,100768.22
2017-11-04T11:17:54.158Z,100764.47
2017-11-04T11:20:22.404Z,100763.34
2017-11-04T11:22:49.980Z,100762.24
2017-11-04T11:25:17.524Z,100757.33
2017-11-04T11:27:45.076Z,100753.36
2017-11-04T11:30:12.629Z,100750.86
2017-11-04T11:32:40.164Z,100752.52
2017-11-04T11:35:07.714Z,100749.30
2017-11-04T11:37:35.257Z,100746.92
2017-11-04T11:40:02.801Z,100738.37
2017-11-04T11:42:30.381Z,100739.08
2017-11-04T11:44:57.928Z,100736.20
2017-11-04T11:47:25.467Z,100733.64
2017-11-04T11:49:53.056Z,100730.61
2017-11-04T11:52:20.886Z,100722.98
2017-11-04T11:54:48.446Z,100719.59
2017-11-04T11:57:15.993Z,100717.98
2017-11-04T11:59:43.533Z,100723.22
2017-11-04T12:02:11.076Z,100721.53
2017-11-04T12:04:38.625Z,100713.41
2017-11-04T12:07:06.194Z,100714.24
2017-11-04T12:09:33.749Z,100710.34
2017-11-04T12:12:01.293Z,100699.91
2017-11-04T12:14:28.842Z,100693.81
2017-11-04T12:16:56.385Z,100690.78
2017-11-04T12:19:23.928Z,100686.98
2017-11-04T12:21:52.444Z,100694.71
2017-11-04T12:24:19.991Z,100686.61
2017-11-04T12:26:47.580Z,100695.50
2017-11-04T12:29:15.128Z,100689.38
2017-11-04T12:31:42.672Z,100689.41
2017-11-04T12:34:10.259Z,100679.41
2017-11-04T12:36:37.802Z,100670.92
2017-11-04T12:39:05.341Z,100668.50
2017-11-04T12:41:33.573Z,100662.17
2017-11-04T12:44:01.645Z,100657.61
2017-11-04T12:46:29.187Z,100657.53
2017-11-04T12:48:56.735Z,100653.91
2017-11-04T12:51:24.294Z,100657.25
2017-11-04T12:53:51.843Z,100650.87
2017-11-04T12:56:19.388Z,100644.65
2017-11-04T12:58:46.932Z,100640.02
2017-11-04T13:01:14.479Z,100640.77
2017-11-04T13:03:42.065Z,100641.80
2017-11-04T13:06:09.609Z,100630.70
2017-11-04T13:08:37.156Z,100629.20
2017-11-04T13:11:04.703Z,100623.89
2017-11-04T13:13:33.172Z,100620.14
2017-11-04T13:16:00.985Z,100613.79
2017-11-04T13:18:28.522Z,100619.47
2017-11-04T13:20:56.071Z,100613.97
2017-11-04T13:23:23.652Z,100616.34
2017-11-04T13:25:51.192Z,100623.52
2017-11-04T13:28:18.731Z,100613.97
2017-11-04T13:30:46.286Z,100614.81
2017-11-04T13:33:13.827Z,100618.84
2017-11-04T13:35:41.408Z,100617.48
2017-11-04T13:38:08.967Z,100616.04
2017-11-04T13:40:36.504Z,100613.80
2017-11-04T13:43:04.046Z,100614.11
2017-11-04T13:45:32.514Z,100613.56
2017-11-04T13:48:00.096Z,100615.14
2017-11-04T13:50:27.649Z,100613.50
2017-11-04T13:52:55.192Z,100603.98
2017-11-04T13:55:23.153Z,100598.03
2017-11-04T13:57:50.687Z,100604.41
2017-11-04T14:00:19.733Z,100603.02
2017-11-04T14:02:47.280Z,100599.94
2017-11-04T14:05:14.823Z,100605.03
2017-11-04T14:07:42.367Z,100607.70
2017-11-04T14:10:09.910Z,100605.08
2017-11-04T14:12:37.444Z,100603.54
2017-11-04T14:15:04.986Z,100593.11
2017-11-04T14:17:32.530Z,100591.98
2017-11-04T14:20:00.078Z,100587.34
2017-11-04T14:22:27.622Z,100584.72
2017-11-04T14:24:55.199Z,100585.26
2017-11-04T14:27:23.120Z,100574.67
2017-11-04T14:29:50.674Z,100569.41
2017-11-04T14:32:18.261Z,100573.28
2017-11-04T14:34:45.805Z,100577.77
2017-11-04T14:37:13.356Z,100573.97
2017-11-04T14:39:40.901Z,100581.09
2017-11-04T14:42:08.458Z,100576.71
2017-11-04T14:44:36.003Z,100578.59
2017-11-04T14:47:03.555Z,100578.73
2017-11-04T14:49:31.107Z,100581.26
2017-11-04T14:51:58.651Z,100573.08
2017-11-04T14:54:26.203Z,100577.10
2017-11-04T14:56:54.479Z,100570.05
2017-11-04T14:59:22.552Z,100573.52
2017-11-04T15:01:50.131Z,100561.50
2017-11-04T15:04:17.693Z,100560.42
2017-11-04T15:06:45.235Z,100551.98
2017-11-04T15:09:12.778Z,100552.32
2017-11-04T15:11:40.317Z,100548.77
2017-11-04T15:14:07.861Z,100543.11
2017-11-04T15:16:35.405Z,100549.16
2017-11-04T15:19:02.944Z,100542.13
2017-11-04T15:21:30.496Z,100536.35
2017-11-04T15:23:58.073Z,100534.99
2017-11-04T15:26:25.659Z,100536.59
2017-11-04T15:28:53.894Z,100528.90
2017-11-04T15:31:21.428Z,100536.86
2017-11-04T15:33:49.018Z,100531.56
2017-11-04T15:36:16.557Z,100532.16
2017-11-04T15:38:44.096Z,100528.37
2017-11-04T15:41:11.637Z,100527.44
2017-11-04T15:43:39.214Z,100517.44
2017-11-04T15:46:06.757Z,100519.61
2017-11-04T15:48:34.383Z,100521.40
2017-11-04T15:51:01.920Z,100524.41
2017-11-04T15:53:29.488Z,100523.69
2017-11-04T15:55:57.032Z,100524.66
2017-11-04T15:58:24.577Z,100524.66
2017-11-04T16:00:52.129Z,100519.55
2017-11-04T16:03:19.711Z,100529.42
2017-11-04T16:05:47.253Z,100530.44
2017-11-04T16:08:14.838Z,100529.69
2017-11-04T16:10:42.384Z,100522.39
2017-11-04T16:13:09.923Z,100532.72
2017-11-04T16:15:37.458Z,100528.21
2017-11-04T16:18:05.000Z,100525.67
2017-11-04T16:20:32.571Z,100527.62
2017-11-04T16:23:00.113Z,100526.99
2017-11-04T16:25:27.646Z,100524.80
2017-11-04T16:27:55.191Z,100525.52
2017-11-04T16:30:23.269Z,100526.27
2017-11-04T16:32:50.816Z,100519.66
2017-11-04T16:35:18.402Z,100518.69
2017-11-04T16:37:45.948Z,100502.34
2017-11-04T16:40:13.518Z,100503.98
2017-11-04T16:42:41.065Z,100508.50
2017-11-04T16:45:08.605Z,100513.45
2017-11-04T16:47:36.140Z,100507.61
2017-11-04T16:50:03.715Z,100506.94
2017-11-04T16:52:31.269Z,100505.80
2017-11-04T16:54:58.809Z,100502.59
2017-11-04T16:57:26.381Z,100504.27
2017-11-04T16:59:54.871Z,100507.13
2017-11-04T17:02:22.458Z,100496.86
2017-11-04T17:04:49.997Z,100491.72
2017-11-04T17:07:17.540Z,100484.44
2017-11-04T17:09:45.077Z,100482.62
2017-11-04T17:12:12.620Z,100487.13
2017-11-04T17:14:40.201Z,100488.10
2017-11-04T17:17:07.737Z,100472.36
2017-11-04T17:19:35.278Z,100480.02
2017-11-04T17:22:02.823Z,100472.86
2017-11-04T17:24:30.352Z,100472.19
2017-11-04T17:26:58.717Z,100480.19
2017-11-04T17:29:26.256Z,100489.50
2017-11-04T17:31:53.793Z,100482.16
2017-11-04T17:34:21.329Z,100484.48
2017-11-04T17:36:48.864Z,100478.30
2017-11-04T17:39:17.101Z,100473.11
2017-11-04T17:41:44.948Z,100468.55
2017-11-04T17:44:12.475Z,100472.81
2017-11-04T17:46:40.017Z,100480.47
2017-11-04T17:49:07.579Z,100474.53
2017-11-04T17:51:35.108Z,100477.44
2017-11-04T17:54:02.655Z,100473.23
2017-11-04T17:56:30.190Z,100480.69
2017-11-04T17:58:57.759Z,100471.70
2017-11-04T18:01:25.341Z,100469.95
2017-11-04T18:03:53.897Z,100472.81
2017-11-04T18:06:21.440Z,100471.50
2017-11-04T18:08:49.014Z,100467.79
2017-11-04T18:11:17.529Z,100461.59
2017-11-04T18:13:46.258Z,100466.75
2017-11-04T18:16:13.844Z,100454.48
2017-11-04T18:18:42.295Z,100460.00
2017-11-04T18:21:09.824Z,100457.73
2017-11-04T18:23:37.366Z,100459.62
2017-11-04T18:26:04.928Z,100457.94
2017-11-04T18:28:33.195Z,100458.57
2017-11-04T18:31:00.765Z,100447.88
2017-11-04T18:33:28.306Z,100447.47
2017-11-04T18:35:55.854Z,100440.05
2017-11-04T18:38:23.386Z,100449.61
2017-11-04T18:40:50.965Z,100447.13
2017-11-04T18:43:18.505Z,100441.98
2017-11-04T18:45:46.049Z,100437.23
2017-11-04T18:48:13.626Z,100442.66
2017-11-04T18:50:41.161Z,100424.00
2017-11-04T18:53:08.697Z,100428.72
2017-11-04T18:55:36.227Z,100431.62
2017-11-04T18:58:03.835Z,100440.77
2017-11-04T19:00:31.385Z,100445.23
2017-11-04T19:02:58.960Z,100444.55
2017-11-04T19:05:27.358Z,100452.92
2017-11-04T19:07:54.908Z,100442.81
2017-11-04T19:10:22.488Z,100441.13
2017-11-04T19:12:50.025Z,100435.87
2017-11-04T19:15:17.556Z,100432.84
2017-11-04T19:17:45.097Z,100434.41
2017-11-04T19:20:12.644Z,100420.59
2017-11-04T19:22:40.391Z,100424.09
2017-11-04T19:25:08.093Z,100427.04
2017-11-04T19:27:35.625Z,100424.00
2017-11-04T19:30:03.169Z,100430.48
2017-11-04T19:32:30.710Z,100431.19
2017-11-04T19:34:58.293Z,100438.39
2017-11-04T19:37:25.830Z,100435.83
2017-11-04T19:39:53.376Z,100431.62
2017-11-04T19:42:20.916Z,100428.73
2017-11-04T19:44:48.458Z,100420.77
2017-11-04T19:47:16.000Z,100424.27
2017-11-04T19:49:43.541Z,100425.11
2017-11-04T19:52:11.077Z,100425.90
2017-11-04T19:54:39.577Z,100425.06
2017-11-04T19:57:07.153Z,100428.55
2017-11-04T19:59:34.739Z,100424.34
2017-11-04T20:02:03.020Z,100432.84
2017-11-04T20:04:30.570Z,100431.66
2017-11-04T20:06:58.139Z,100436.16
2017-11-04T20:09:25.835Z,100434.05
2017-11-04T20:11:53.592Z,100425.56
2017-11-04T20:14:21.169Z,100430.99
2017-11-04T20:16:49.510Z,100421.84
2017-11-04T20:19:17.758Z,100428.13
2017-11-04T20:21:45.303Z,100426.86
2017-11-04T20:24:12.845Z,100429.26
2017-11-04T20:26:40.379Z,100432.63
2017-11-04T20:29:07.924Z,100434.97
2017-11-04T20:31:35.482Z,100435.05
2017-11-04T20:34:03.069Z,100435.02
2017-11-04T20:36:30.612Z,100431.18
2017-11-04T20:38:59.313Z,100444.25
2017-11-04T20:41:26.890Z,100439.83
2017-11-04T20:43:54.457Z,100440.09
2017-11-04T20:46:22.037Z,100439.70
2017-11-04T20:48:49.586Z,100444.51
2017-11-04T20:51:17.134Z,100430.31
2017-11-04T20:53:45.930Z,100428.31
2017-11-04T20:56:13.969Z,100426.69
2017-11-04T20:58:41.906Z,100423.64
2017-11-04T21:01:09.459Z,100435.06
2017-11-04T21:03:37.029Z,100442.95
2017-11-04T21:06:04.821Z,100446.86
2017-11-04T21:08:32.474Z,100437.53
2017-11-04T21:11:00.015Z,100438.38
2017-11-04T21:13:27.557Z,100437.14
2017-11-04T21:15:55.110Z,100433.25
2017-11-04T21:18:22.683Z,100428.77
2017-11-04T21:20:50.271Z,100433.42
2017-11-04T21:23:17.813Z,100423.37
2017-11-04T21:25:45.358Z,100427.33
2017-11-04T21:28:13.231Z,100423.63
2017-11-04T21:30:40.833Z,100423.56
2017-11-04T21:33:08.370Z,100423.61
2017-11-04T21:35:35.941Z,100428.36
2017-11-04T21:38:03.525Z,100427.00
2017-11-04T21:40:31.103Z,100416.97
2017-11-04T21:42:58.737Z,100427.17
2017-11-04T21:45:26.289Z,100428.48
2017-11-04T21:47:53.826Z,100425.03
2017-11-04T21:50:21.365Z,100426.81
2017-11-04T21:52:48.981Z,100419.20
2017-11-04T21:55:16.520Z,100423.63
2017-11-04T21:57:44.107Z,100421.22
2017-11-04T22:00:11.646Z,100419.91
2017-11-04T22:02:39.488Z,100424.25
2017-11-04T22:05:07.163Z,100416.53
2017-11-04T22:07:34.705Z,100416.38
2017-11-04T22:10:02.230Z,100417.28
2017-11-04T22:12:29.809Z,100415.47
2017-11-04T22:14:57.347Z,100410.41
2017-11-04T22:17:24.923Z,100412.53
2017-11-04T22:19:52.461Z,100405.41
2017-11-04T22:22:19.999Z,100411.38
2017-11-04T22:24:47.568Z,100414.73
2017-11-04T22:27:15.109Z,100413.14
2017-11-04T22:29:42.693Z,100415.22
2017-11-04T22:32:10.352Z,100411.95
2017-11-04T22:34:37.896Z,100421.48
2017-11-04T22:37:05.508Z,100414.53
2017-11-04T22:39:33.046Z,100421.28
2017-11-04T22:42:00.576Z,100422.53
2017-11-04T22:44:28.139Z,100424.64
2017-11-04T22:46:55.731Z,100422.84
2017-11-04T22:49:23.275Z,100423.95
2017-11-04T22:51:50.817Z,100430.55
2017-11-04T22:54:18.357Z,100427.40
2017-11-04T22:56:45.905Z,100424.53
2017-11-04T22:59:13.552Z,100419.89
2017-11-04T23:01:41.394Z,100414.64
2017-11-04T23:04:08.931Z,100409.01
2017-11-04T23:06:36.468Z,100408.48
2017-11-04T23:09:04.004Z,100408.91
2017-11-04T23:11:31.548Z,100406.64
2017-11-04T23:13:59.084Z,100406.37
2017-11-04T23:16:26.634Z,100408.52
2017-11-04T23:18:54.212Z,100405.77
2017-11-04T23:21:21.748Z,100409.30
2017-11-04T23:23:49.358Z,100405.03
2017-11-04T23:26:16.894Z,100405.05
2017-11-04T23:28:44.437Z,100405.84
2017-11-04T23:31:12.958Z,100406.13
2017-11-04T23:33:40.502Z,100408.21
2017-11-04T23:36:08.075Z,100408.48
2017-11-04T23:38:35.618Z,100396.59
2017-11-04T23:41:03.148Z,100396.38
2017-11-04T23:43:30.722Z,100395.93
2017-11-04T23:45:58.259Z,100396.08
2017-11-04T23:48:25.799Z,100384.55
2017-11-04T23:50:53.341Z,100384.48
2017-11-04T23:53:20.889Z,100384.41
2017-11-04T23:55:48.431Z,100386.39
2017-11-04T23:58:16.093Z,100383.36
